Time;durP1;ratioP1;P1;durP2;ratioP2;P2;SDS_P1;SDS_P2;PMS_P1;PMS_P2;Temp;Humidity;BMP_temperature;BMP_pressure;BME280_temperature;BME280_humidity;BME280_pressure;Samples;Min_cycle;Max_cycle;Signal;HPM_P1;HPM_P2
2023/07/27 00:00:06;;;;;;;6.28;2.38;;;13.90;99.90;;;;;;4965382;28;20035;-73
2023/07/27 08:14:00;;;;;;;2.58;1.40;;;19.00;91.20;;;;;;5479664;23;20051;-75
2023/07/27 08:16:25;;;;;;;3.50;1.30;;;19.20;91.10;;;;;;4995527;28;20022;-76
2023/07/27 08:18:51;;;;;;;2.38;1.20;;;19.10;91.00;;;;;;4992626;28;20201;-74
2023/07/27 08:21:17;;;;;;;5.18;1.23;;;19.30;90.90;;;;;;4989493;28;20141;-75
2023/07/27 08:23:45;;;;;;;2.63;1.27;;;19.40;90.70;;;;;;5004528;28;20030;-76
2023/07/27 08:26:12;;;;;;;2.92;1.17;;;19.40;90.50;;;;;;5003224;28;20207;-75
2023/07/27 08:28:38;;;;;;;3.08;1.55;;;19.50;90.20;;;;;;4966773;28;20038;-76
2023/07/27 08:31:04;;;;;;;8.90;1.98;;;19.50;90.20;;;;;;4999853;28;20032;-76
2023/07/27 08:33:33;;;;;;;3.22;1.40;;;19.70;90.20;;;;;;4990552;28;20023;-77
2023/07/27 08:36:03;;;;;;;3.20;1.50;;;19.70;89.70;;;;;;4951120;28;20102;-78
2023/07/27 08:38:30;;;;;;;5.47;1.50;;;19.60;90.10;;;;;;4950691;28;20217;-74
2023/07/27 08:40:57;;;;;;;3.83;1.30;;;19.70;90.20;;;;;;4966811;28;20105;-75
2023/07/27 08:43:23;;;;;;;3.60;1.55;;;19.60;90.10;;;;;;4966111;28;20202;-75
2023/07/27 08:45:48;;;;;;;2.28;1.15;;;19.70;90.00;;;;;;4984377;28;20034;-75
2023/07/27 08:48:15;;;;;;;3.20;1.35;;;19.70;89.90;;;;;;4983316;28;20033;-75
2023/07/27 08:50:43;;;;;;;4.15;1.52;;;19.60;90.00;;;;;;4983420;28;20101;-78
2023/07/27 08:53:10;;;;;;;;;;;19.90;89.90;;;;;;4951504;28;20034;-75
2023/07/27 08:55:37;;;;;;;2.97;1.23;;;19.80;89.50;;;;;;4966595;28;20226;-75
2023/07/27 08:58:03;;;;;;;4.13;1.50;;;19.90;89.80;;;;;;4950817;28;20051;-75
2023/07/27 09:00:29;;;;;;;4.30;1.35;;;19.90;89.40;;;;;;4983429;28;20034;-77
2023/07/27 09:02:55;;;;;;;2.60;1.55;;;19.90;89.10;;;;;;4993479;28;20089;-75
2023/07/27 09:05:21;;;;;;;7.38;1.80;;;19.90;89.50;;;;;;5002800;28;20077;-74
2023/07/27 09:07:50;;;;;;;6.28;1.60;;;20.00;89.50;;;;;;4986379;28;20026;-75
2023/07/27 09:10:24;;;;;;;7.38;1.80;;;20.00;89.00;;;;;;4969987;28;20060;-77
2023/07/27 09:12:50;;;;;;;4.28;1.42;;;20.00;89.40;;;;;;5000554;28;20362;-78
2023/07/27 09:15:16;;;;;;;3.90;1.33;;;20.00;89.70;;;;;;4963239;28;20098;-76
2023/07/27 09:17:43;;;;;;;4.28;1.35;;;20.00;90.10;;;;;;4950143;28;20066;-77
2023/07/27 09:20:18;;;;;;;3.28;1.42;;;20.00;89.40;;;;;;4950514;28;20065;-74
2023/07/27 09:22:45;;;;;;;2.85;1.45;;;19.90;89.20;;;;;;4983382;28;20034;-77
2023/07/27 09:25:11;;;;;;;3.38;1.38;;;19.80;89.20;;;;;;4966205;28;20035;-76
2023/07/27 09:27:43;;;;;;;4.50;2.13;;;19.80;89.90;;;;;;4982589;28;20243;-77
2023/07/27 09:30:10;;;;;;;3.97;1.50;;;19.80;90.00;;;;;;4983368;28;20035;-74
2023/07/27 09:32:36;;;;;;;3.20;1.42;;;19.90;89.40;;;;;;4982769;28;20038;-75
2023/07/27 09:35:03;;;;;;;4.32;1.38;;;19.80;90.40;;;;;;4983704;28;20039;-74
2023/07/27 09:37:29;;;;;;;3.25;1.40;;;19.80;90.70;;;;;;4966160;28;20034;-76
2023/07/27 09:40:09;;;;;;;3.58;1.80;;;19.70;91.30;;;;;;4983466;28;20026;-75
2023/07/27 09:42:35;;;;;;;3.22;1.50;;;19.50;92.00;;;;;;4982680;28;20042;-73
2023/07/27 09:45:01;;;;;;;3.33;1.50;;;19.30;92.20;;;;;;4950259;28;20027;-75
2023/07/27 09:47:32;;;;;;;5.80;1.50;;;19.20;92.40;;;;;;4965797;28;20346;-74
2023/07/27 09:50:02;;;;;;;4.18;1.67;;;19.10;93.40;;;;;;4983076;28;20308;-77
2023/07/27 09:52:55;;;;;;;4.05;1.58;;;19.10;93.70;;;;;;4965591;28;20057;-77
2023/07/27 09:55:22;;;;;;;3.47;1.50;;;19.10;92.80;;;;;;4967567;28;20138;-75
2023/07/27 09:57:48;;;;;;;3.03;1.58;;;19.10;92.60;;;;;;4969854;28;20086;-74
2023/07/27 10:00:14;;;;;;;2.70;1.23;;;19.20;92.40;;;;;;4986707;28;20015;-75
2023/07/27 10:02:40;;;;;;;3.78;1.73;;;19.20;92.10;;;;;;4986312;28;20038;-74
2023/07/27 10:05:06;;;;;;;4.63;1.67;;;19.30;92.40;;;;;;4986785;28;20031;-74
2023/07/27 10:07:32;;;;;;;2.72;1.10;;;19.30;92.20;;;;;;4969291;28;20070;-74
2023/07/27 10:10:34;;;;;;;3.05;1.50;;;19.40;92.10;;;;;;4986560;28;20031;-74
2023/07/27 10:13:23;;;;;;;3.38;1.30;;;19.40;92.10;;;;;;4968884;28;20070;-75
2023/07/27 10:15:50;;;;;;;4.15;1.50;;;19.50;92.20;;;;;;4958190;29;20329;-73
2023/07/27 10:18:29;;;;;;;3.75;1.60;;;19.50;92.20;;;;;;4973721;28;20346;-76
2023/07/27 10:20:56;;;;;;;5.93;1.52;;;19.60;92.00;;;;;;4986859;28;20308;-73
2023/07/27 10:23:29;;;;;;;4.65;1.50;;;19.60;91.70;;;;;;4969009;28;20213;-73
2023/07/27 10:25:55;;;;;;;2.50;1.17;;;19.50;91.60;;;;;;4986420;28;20452;-73
2023/07/27 10:28:42;;;;;;;3.67;1.50;;;19.60;91.70;;;;;;4986238;28;20026;-73
2023/07/27 10:31:14;;;;;;;4.10;1.13;;;19.70;91.70;;;;;;4969321;28;20097;-73
2023/07/27 10:33:53;;;;;;;3.55;1.45;;;19.90;91.60;;;;;;4985442;28;20042;-74
2023/07/27 10:36:20;;;;;;;3.08;1.30;;;20.10;91.20;;;;;;4986117;28;20023;-73
2023/07/27 10:38:56;;;;;;;4.35;1.55;;;20.40;90.60;;;;;;4986366;28;20232;-74
2023/07/27 10:41:25;;;;;;;4.60;1.50;;;20.60;90.60;;;;;;4985972;28;20031;-75
2023/07/27 10:44:10;;;;;;;4.22;1.27;;;20.80;90.40;;;;;;4986326;28;20296;-74
2023/07/27 10:46:44;;;;;;;3.53;1.40;;;20.90;89.60;;;;;;4985939;28;20039;-74
2023/07/27 10:49:17;;;;;;;6.30;1.63;;;21.10;89.40;;;;;;4986540;28;20102;-72
2023/07/27 10:51:45;;;;;;;3.42;1.20;;;21.20;89.30;;;;;;4986216;28;20026;-76
2023/07/27 10:54:11;;;;;;;4.30;1.40;;;21.40;88.10;;;;;;4986330;28;20038;-76
2023/07/27 10:56:37;;;;;;;6.25;1.52;;;21.50;88.10;;;;;;4967463;28;20571;-73
2023/07/27 10:59:03;;;;;;;2.97;1.10;;;21.50;87.90;;;;;;4986582;28;20356;-76
2023/07/27 11:01:30;;;;;;;4.90;1.40;;;21.50;87.40;;;;;;4985784;28;20023;-74
2023/07/27 11:03:57;;;;;;;3.42;1.40;;;21.70;87.60;;;;;;4985866;28;20030;-75
2023/07/27 11:06:24;;;;;;;4.28;1.50;;;21.70;87.10;;;;;;4984899;28;20327;-73
2023/07/27 11:08:50;;;;;;;3.60;1.50;;;21.90;87.30;;;;;;4968749;28;20026;-74
2023/07/27 11:11:21;;;;;;;2.65;1.13;;;22.10;86.30;;;;;;4986547;28;20038;-75
2023/07/27 11:13:47;;;;;;;4.47;1.40;;;22.10;85.60;;;;;;4985696;28;20359;-74
2023/07/27 11:16:13;;;;;;;3.95;1.30;;;22.30;85.50;;;;;;4968758;28;20033;-72
2023/07/27 11:18:43;;;;;;;5.13;1.20;;;22.30;84.70;;;;;;4985020;28;20268;-74
2023/07/27 11:21:09;;;;;;;3.50;1.60;;;22.50;84.70;;;;;;4985800;28;20050;-74
2023/07/27 11:23:48;;;;;;;4.03;1.40;;;22.70;85.00;;;;;;4985645;28;20073;-74
2023/07/27 11:26:13;;;;;;;;;;;22.60;84.10;;;;;;4986106;28;20077;-74
2023/07/27 11:28:40;;;;;;;3.15;1.30;;;22.70;84.60;;;;;;4984634;28;19914;-73
2023/07/27 11:31:07;;;;;;;2.53;1.30;;;22.50;85.20;;;;;;4968002;28;20197;-73
2023/07/27 11:33:36;;;;;;;4.05;1.23;;;22.30;85.40;;;;;;4984932;28;20054;-72
2023/07/27 11:36:04;;;;;;;4.50;1.33;;;22.40;85.40;;;;;;4981401;28;20061;-72
2023/07/27 11:38:30;;;;;;;2.65;1.17;;;22.40;85.40;;;;;;4948599;29;20087;-75
2023/07/27 11:41:02;;;;;;;3.30;1.52;;;22.50;85.10;;;;;;4949148;29;20039;-74
2023/07/27 11:43:29;;;;;;;5.38;1.40;;;22.30;85.30;;;;;;4965908;29;20042;-75
2023/07/27 11:45:56;;;;;;;8.10;1.50;;;22.50;85.30;;;;;;4933078;29;20030;-78
2023/07/27 11:48:29;;;;;;;3.70;1.20;;;22.60;85.40;;;;;;4948758;29;20050;-75
2023/07/27 11:50:59;;;;;;;16.90;2.85;;;22.60;85.10;;;;;;4948917;29;20029;-77
2023/07/27 11:53:28;;;;;;;17.50;3.30;;;22.40;88.70;;;;;;4948378;29;20081;-75
2023/07/27 11:55:55;;;;;;;4.22;1.30;;;22.30;88.10;;;;;;4933244;28;20198;-74
2023/07/27 11:58:26;;;;;;;4.15;1.35;;;22.30;89.00;;;;;;4968236;28;20063;-74
2023/07/27 12:00:53;;;;;;;4.28;1.05;;;22.30;88.50;;;;;;4948805;29;20038;-75
2023/07/27 12:03:20;;;;;;;3.25;1.45;;;22.30;89.40;;;;;;4972146;28;20029;-75
2023/07/27 12:05:55;;;;;;;2.95;1.30;;;22.30;89.20;;;;;;4984815;28;20204;-76
2023/07/27 12:08:21;;;;;;;3.03;1.15;;;22.30;90.30;;;;;;4932951;29;20031;-76
2023/07/27 12:11:09;;;;;;;6.72;1.20;;;22.30;88.10;;;;;;4948583;29;20078;-73
2023/07/27 12:13:36;;;;;;;19.33;3.20;;;22.20;90.70;;;;;;4950987;28;20038;-74
2023/07/27 12:16:07;;;;;;;3.10;1.25;;;22.10;91.40;;;;;;4984814;28;20035;-74
2023/07/27 12:18:33;;;;;;;3.47;1.13;;;22.00;91.70;;;;;;4964203;29;20146;-76
2023/07/27 12:20:59;;;;;;;5.32;1.20;;;22.10;92.50;;;;;;4971395;28;20034;-76
2023/07/27 12:23:26;;;;;;;4.00;1.45;;;21.90;92.90;;;;;;4984248;28;20065;-75
2023/07/27 12:25:53;;;;;;;3.47;1.27;;;21.80;92.40;;;;;;4985247;28;20272;-76
2023/07/27 12:28:20;;;;;;;2.83;1.38;;;21.70;92.90;;;;;;4984130;28;20038;-74
2023/07/27 12:30:46;;;;;;;4.53;2.47;;;21.60;93.80;;;;;;4984637;28;20057;-75
2023/07/27 12:33:12;;;;;;;6.70;1.65;;;21.70;94.20;;;;;;4981470;28;20019;-74
2023/07/27 12:35:38;;;;;;;3.92;1.30;;;21.70;94.50;;;;;;4983802;28;20059;-74
2023/07/27 12:38:04;;;;;;;7.05;1.73;;;21.60;95.00;;;;;;4983313;28;20058;-78
2023/07/27 12:40:30;;;;;;;3.00;1.17;;;21.40;95.50;;;;;;4982853;28;20280;-74
2023/07/27 12:42:57;;;;;;;6.85;1.70;;;21.50;96.00;;;;;;4983261;28;20018;-76
2023/07/27 12:45:26;;;;;;;2.78;1.35;;;21.50;95.60;;;;;;4983964;28;20030;-78
2023/07/27 12:47:53;;;;;;;5.35;1.50;;;21.50;97.10;;;;;;4983026;28;20305;-76
2023/07/27 12:50:20;;;;;;;3.35;1.40;;;21.50;96.60;;;;;;4983943;28;20031;-77
2023/07/27 12:52:49;;;;;;;3.67;1.30;;;21.50;96.90;;;;;;4966938;28;20089;-82
2023/07/27 12:55:16;;;;;;;2.85;1.40;;;21.40;96.80;;;;;;4982043;28;20217;-76
2023/07/27 12:57:44;;;;;;;5.03;1.90;;;21.50;97.20;;;;;;4983012;28;20212;-76
2023/07/27 13:00:14;;;;;;;6.68;1.70;;;21.60;97.50;;;;;;4983639;28;20089;-76
2023/07/27 13:02:40;;;;;;;14.55;1.90;;;21.80;98.10;;;;;;4983880;28;20038;-76
2023/07/27 13:05:15;;;;;;;4.53;1.45;;;21.90;95.90;;;;;;4982670;28;20027;-74
2023/07/27 13:07:45;;;;;;;3.60;1.27;;;22.10;97.40;;;;;;4983350;28;20038;-75
2023/07/27 13:10:12;;;;;;;4.78;1.40;;;22.10;95.10;;;;;;4984301;28;20026;-73
2023/07/27 13:12:42;;;;;;;3.40;1.30;;;22.20;95.50;;;;;;4983304;28;20041;-79
2023/07/27 13:15:08;;;;;;;3.83;1.80;;;22.10;97.30;;;;;;4976463;28;20035;-72
2023/07/27 13:17:36;;;;;;;3.10;1.40;;;21.90;96.50;;;;;;4973590;28;20334;-72
2023/07/27 13:20:03;;;;;;;4.37;1.20;;;21.90;96.90;;;;;;4983401;28;20101;-73
2023/07/27 13:22:30;;;;;;;2.80;1.40;;;22.10;97.00;;;;;;4977575;28;20045;-72
2023/07/27 13:24:56;;;;;;;4.05;1.27;;;21.90;96.40;;;;;;4983644;28;20042;-73
2023/07/27 13:27:22;;;;;;;2.45;1.30;;;22.00;96.80;;;;;;4983624;28;20062;-73
2023/07/27 13:29:49;;;;;;;3.45;1.20;;;22.10;96.70;;;;;;4990201;28;20033;-74
2023/07/27 13:32:15;;;;;;;2.08;0.93;;;22.20;96.50;;;;;;4987362;28;20042;-71
2023/07/27 13:34:42;;;;;;;1.88;1.00;;;22.20;97.10;;;;;;4989478;28;20027;-72
2023/07/27 13:37:08;;;;;;;3.08;1.30;;;22.10;96.80;;;;;;4987483;28;20325;-74
2023/07/27 13:39:37;;;;;;;2.97;1.40;;;22.20;96.80;;;;;;4989461;28;20312;-71
2023/07/27 13:42:04;;;;;;;4.63;3.03;;;22.30;97.30;;;;;;4989785;28;20050;-72
2023/07/27 13:44:30;;;;;;;2.60;1.35;;;22.30;96.80;;;;;;4989656;28;20086;-71
2023/07/27 13:46:57;;;;;;;3.58;1.30;;;22.20;97.30;;;;;;4990168;28;20209;-72
2023/07/27 13:49:23;;;;;;;2.53;1.23;;;22.20;97.50;;;;;;4988383;28;20304;-71
2023/07/27 13:51:50;;;;;;;2.35;1.40;;;22.10;97.30;;;;;;4989980;28;20045;-71
2023/07/27 13:54:16;;;;;;;5.55;3.33;;;22.10;96.60;;;;;;4989970;28;20030;-72
2023/07/27 13:56:43;;;;;;;2.50;1.20;;;22.00;97.50;;;;;;4990105;28;20041;-72
2023/07/27 13:59:09;;;;;;;2.70;1.45;;;21.90;96.80;;;;;;4990060;28;20078;-75
2023/07/27 14:01:36;;;;;;;2.95;1.30;;;22.00;97.80;;;;;;4989316;28;20026;-74
2023/07/27 14:04:02;;;;;;;3.67;1.30;;;22.10;97.60;;;;;;4988780;28;20022;-77
2023/07/27 14:06:29;;;;;;;4.47;1.25;;;22.20;97.00;;;;;;4988940;28;20031;-75
2023/07/27 14:08:55;;;;;;;2.22;1.23;;;22.10;96.20;;;;;;4989490;28;20102;-73
2023/07/27 14:11:22;;;;;;;4.85;1.40;;;22.10;96.70;;;;;;4989367;28;20093;-74
2023/07/27 14:13:49;;;;;;;2.38;1.10;;;22.30;96.10;;;;;;4988332;28;20375;-74
2023/07/27 14:16:16;;;;;;;3.40;1.40;;;22.10;95.80;;;;;;4990106;28;20334;-74
2023/07/27 14:18:43;;;;;;;2.88;1.48;;;22.10;95.60;;;;;;4990063;28;20038;-73
2023/07/27 14:21:10;;;;;;;3.28;1.38;;;22.10;95.20;;;;;;4989604;28;20053;-73
2023/07/27 14:23:36;;;;;;;3.00;1.08;;;22.00;95.00;;;;;;4989231;28;20037;-73
2023/07/27 14:26:02;;;;;;;2.78;1.25;;;21.90;95.50;;;;;;4989631;28;20030;-73
2023/07/27 14:28:29;;;;;;;2.60;1.40;;;22.00;95.20;;;;;;4989224;28;20035;-73
2023/07/27 14:30:57;;;;;;;2.70;1.27;;;21.90;95.60;;;;;;4988533;28;20209;-72
2023/07/27 14:33:23;;;;;;;;;;;22.00;95.80;;;;;;4989921;28;20070;-74
2023/07/27 14:35:49;;;;;;;3.05;1.45;;;22.20;95.70;;;;;;4988742;28;19906;-72
2023/07/27 14:38:15;;;;;;;4.13;1.27;;;22.20;95.90;;;;;;4989492;28;20102;-73
2023/07/27 14:40:42;;;;;;;4.32;1.38;;;22.40;95.80;;;;;;4985179;28;20031;-73
2023/07/27 14:43:08;;;;;;;2.50;1.23;;;22.50;95.50;;;;;;4986390;28;20026;-72
2023/07/27 14:45:38;;;;;;;2.95;1.38;;;22.70;94.80;;;;;;4986041;28;20078;-73
2023/07/27 14:48:04;;;;;;;24.55;20.10;;;22.80;94.80;;;;;;4986320;28;20064;-74
2023/07/27 14:50:31;;;;;;;3.22;2.00;;;23.00;94.60;;;;;;4986301;28;20340;-74
2023/07/27 14:52:57;;;;;;;3.58;2.30;;;23.00;95.20;;;;;;4986547;28;20035;-74
2023/07/27 14:55:25;;;;;;;24.75;19.92;;;23.00;95.30;;;;;;4985953;28;20046;-75
2023/07/27 14:57:52;;;;;;;4.80;2.13;;;23.00;95.30;;;;;;4986297;28;20034;-73
2023/07/27 15:00:18;;;;;;;3.28;1.60;;;23.00;95.20;;;;;;5001045;28;20026;-73
2023/07/27 15:02:45;;;;;;;3.90;1.63;;;22.70;95.80;;;;;;4985051;28;20034;-72
2023/07/27 15:05:12;;;;;;;3.60;1.90;;;22.60;95.80;;;;;;4986247;28;20086;-73
2023/07/27 15:07:39;;;;;;;3.45;1.63;;;22.40;96.20;;;;;;4985864;28;20042;-72
2023/07/27 15:10:06;;;;;;;3.85;1.50;;;22.50;96.30;;;;;;4985838;28;20092;-73
2023/07/27 15:12:34;;;;;;;4.72;1.63;;;22.40;96.20;;;;;;4985044;28;20154;-73
2023/07/27 15:15:01;;;;;;;4.30;1.95;;;22.30;96.40;;;;;;4985564;28;20054;-72
2023/07/27 15:17:27;;;;;;;4.45;1.88;;;22.40;96.30;;;;;;4968479;28;20030;-72
2023/07/27 15:19:54;;;;;;;4.88;1.88;;;22.50;96.10;;;;;;4985882;28;20058;-73
2023/07/27 15:22:21;;;;;;;4.63;1.83;;;22.60;96.00;;;;;;4965046;29;20038;-74
2023/07/27 15:24:47;;;;;;;2.80;1.50;;;22.90;96.20;;;;;;4966305;29;20023;-74
2023/07/27 15:27:13;;;;;;;3.17;1.50;;;23.10;95.40;;;;;;4949462;29;20095;-75
2023/07/27 15:29:52;;;;;;;3.55;1.65;;;23.30;95.20;;;;;;4966184;29;20074;-73
2023/07/27 15:32:18;;;;;;;3.47;1.88;;;23.80;94.10;;;;;;4966277;29;20035;-74
2023/07/27 15:34:44;;;;;;;4.90;1.85;;;24.40;93.20;;;;;;4966263;29;20027;-75
2023/07/27 15:37:09;;;;;;;3.90;1.17;;;24.50;92.70;;;;;;4949362;29;20106;-75
2023/07/27 15:39:35;;;;;;;3.22;1.73;;;24.80;92.10;;;;;;4965794;29;20324;-75
2023/07/27 15:42:01;;;;;;;2.10;1.30;;;24.90;91.90;;;;;;4966478;29;20075;-74
2023/07/27 15:44:27;;;;;;;5.68;1.40;;;25.20;91.60;;;;;;4962815;28;20027;-75
2023/07/27 15:46:53;;;;;;;2.42;1.30;;;25.30;91.50;;;;;;4985606;28;20030;-74
2023/07/27 15:49:18;;;;;;;3.22;1.30;;;25.60;91.20;;;;;;4984010;28;20058;-74
2023/07/27 15:51:44;;;;;;;3.88;1.42;;;25.60;90.60;;;;;;4967832;28;20304;-74
2023/07/27 15:54:10;;;;;;;2.75;1.27;;;25.50;90.70;;;;;;4985115;28;20045;-74
2023/07/27 15:56:35;;;;;;;2.95;1.60;;;25.40;91.00;;;;;;4984923;28;20058;-75
2023/07/27 15:59:04;;;;;;;3.97;1.60;;;25.00;91.40;;;;;;4985279;28;20049;-75
2023/07/27 16:01:33;;;;;;;3.10;1.40;;;24.70;91.90;;;;;;4984527;28;20035;-75
2023/07/27 16:04:05;;;;;;;2.88;1.42;;;24.40;92.50;;;;;;4985259;28;20155;-76
2023/07/27 16:06:32;;;;;;;4.85;1.98;;;24.30;92.60;;;;;;4984508;28;20256;-74
2023/07/27 16:08:57;;;;;;;4.82;1.73;;;24.50;92.60;;;;;;4985022;28;20217;-75
2023/07/27 16:11:23;;;;;;;8.00;2.55;;;24.50;92.40;;;;;;4984513;28;20034;-74
2023/07/27 16:13:49;;;;;;;5.30;2.38;;;24.50;92.60;;;;;;4984726;28;20047;-76
2023/07/27 16:16:14;;;;;;;6.80;2.90;;;24.60;92.50;;;;;;4985156;28;20061;-72
2023/07/27 16:18:40;;;;;;;6.00;2.47;;;24.40;92.80;;;;;;4975705;28;20208;-74
2023/07/27 16:21:06;;;;;;;5.45;2.80;;;24.30;93.30;;;;;;4984698;28;20042;-74
2023/07/27 16:23:33;;;;;;;4.70;2.10;;;24.10;93.20;;;;;;4984351;28;20046;-74
2023/07/27 16:26:03;;;;;;;5.95;2.47;;;23.80;93.70;;;;;;4984804;28;20035;-74
2023/07/27 16:28:29;;;;;;;4.80;1.98;;;23.60;94.20;;;;;;4966814;28;20058;-75
2023/07/27 16:30:54;;;;;;;3.58;1.98;;;23.50;94.60;;;;;;4967522;28;20031;-74
2023/07/27 16:33:20;;;;;;;3.72;1.92;;;23.50;94.80;;;;;;4984178;28;20030;-76
2023/07/27 16:35:46;;;;;;;5.70;2.30;;;23.40;94.90;;;;;;4967625;28;20035;-75
2023/07/27 16:38:12;;;;;;;3.53;1.75;;;23.30;95.10;;;;;;4984648;28;20043;-74
2023/07/27 16:40:37;;;;;;;3.78;2.33;;;23.10;95.50;;;;;;4966894;28;20205;-75
2023/07/27 16:43:03;;;;;;;4.72;1.95;;;22.90;96.00;;;;;;4981071;28;20053;-73
2023/07/27 16:45:29;;;;;;;3.83;2.30;;;22.70;96.30;;;;;;4964331;29;20325;-75
2023/07/27 16:47:54;;;;;;;5.30;2.60;;;22.60;96.60;;;;;;4965673;29;20178;-73
2023/07/27 16:50:20;;;;;;;4.05;2.45;;;22.60;96.80;;;;;;4964906;28;20086;-72
2023/07/27 16:52:46;;;;;;;5.82;2.10;;;22.50;96.90;;;;;;4964485;29;20029;-73
2023/07/27 16:55:12;;;;;;;3.60;1.60;;;22.50;97.10;;;;;;4964730;29;20030;-73
2023/07/27 16:57:38;;;;;;;5.18;2.20;;;22.70;97.20;;;;;;4964402;29;20042;-73
2023/07/27 17:00:04;;;;;;;4.47;1.80;;;22.70;97.10;;;;;;4965222;28;20083;-74
2023/07/27 17:02:34;;;;;;;24.17;20.40;;;22.80;97.10;;;;;;4964208;28;20023;-74
2023/07/27 17:05:00;;;;;;;7.55;4.50;;;22.90;97.00;;;;;;4984448;28;20049;-74
2023/07/27 17:07:25;;;;;;;5.07;2.60;;;22.90;97.00;;;;;;4983502;28;20054;-75
2023/07/27 17:09:51;;;;;;;4.13;2.45;;;22.90;97.20;;;;;;4983742;28;20042;-74
2023/07/27 17:12:17;;;;;;;5.78;2.20;;;22.90;97.30;;;;;;4983701;28;20309;-74
2023/07/27 17:14:42;;;;;;;4.93;2.15;;;22.80;97.30;;;;;;4983566;28;20178;-73
2023/07/27 17:17:08;;;;;;;4.38;1.85;;;22.70;97.50;;;;;;4984025;28;20217;-74
2023/07/27 17:19:34;;;;;;;5.65;2.20;;;22.70;95.90;;;;;;4983261;28;20318;-73
2023/07/27 17:22:01;;;;;;;3.15;1.83;;;22.80;94.00;;;;;;4983805;28;20124;-75
2023/07/27 17:24:27;;;;;;;4.70;1.92;;;22.80;93.90;;;;;;4983300;28;20049;-71
2023/07/27 17:26:52;;;;;;;2.90;1.65;;;22.80;93.00;;;;;;4983904;28;20054;-72
2023/07/27 17:29:18;;;;;;;3.30;1.67;;;22.90;92.40;;;;;;4983868;28;20089;-74
2023/07/27 17:31:44;;;;;;;3.33;1.70;;;22.90;92.10;;;;;;4983827;28;20043;-73
2023/07/27 17:34:09;;;;;;;2.97;1.50;;;23.00;92.10;;;;;;4983762;28;20034;-72
2023/07/27 17:36:35;;;;;;;5.03;2.30;;;23.10;91.90;;;;;;4983623;28;20047;-72
2023/07/27 17:39:01;;;;;;;3.70;1.77;;;23.10;92.40;;;;;;4983740;28;20094;-75
2023/07/27 17:41:28;;;;;;;3.65;1.65;;;23.00;92.20;;;;;;4984444;28;20042;-75
2023/07/27 17:43:53;;;;;;;4.53;1.88;;;23.00;92.10;;;;;;4983489;28;20031;-74
2023/07/27 17:46:19;;;;;;;3.80;1.90;;;23.00;92.20;;;;;;4984267;28;20101;-73
2023/07/27 17:48:45;;;;;;;5.25;1.67;;;22.90;92.60;;;;;;4983303;28;20232;-73
2023/07/27 17:51:10;;;;;;;3.78;1.95;;;22.90;92.60;;;;;;4982605;28;20078;-74
2023/07/27 17:53:36;;;;;;;2.92;1.65;;;22.80;92.90;;;;;;4983164;28;20090;-73
2023/07/27 17:56:07;;;;;;;3.22;1.58;;;22.70;92.90;;;;;;4983856;28;20037;-73
2023/07/27 17:58:33;;;;;;;5.28;2.30;;;22.70;93.80;;;;;;4983523;28;20045;-73
2023/07/27 18:01:02;;;;;;;2.97;1.80;;;22.60;93.30;;;;;;4984030;28;20035;-74
2023/07/27 18:03:27;;;;;;;4.03;2.30;;;22.50;93.20;;;;;;4983112;28;20045;-77
2023/07/27 18:05:53;;;;;;;3.50;1.83;;;22.40;93.50;;;;;;4983791;28;20308;-74
2023/07/27 18:08:19;;;;;;;3.47;1.80;;;22.40;93.40;;;;;;4983868;28;20070;-73
2023/07/27 18:10:45;;;;;;;4.07;1.85;;;22.40;93.30;;;;;;4965482;28;20042;-74
2023/07/27 18:13:11;;;;;;;4.30;2.17;;;22.40;93.60;;;;;;4966556;28;20039;-75
2023/07/27 18:15:39;;;;;;;3.60;2.17;;;22.30;93.50;;;;;;4986678;28;20058;-72
2023/07/27 18:18:04;;;;;;;4.43;2.05;;;22.30;94.40;;;;;;4987097;28;20027;-75
2023/07/27 18:20:30;;;;;;;6.35;2.00;;;22.20;93.80;;;;;;4986662;28;20035;-74
2023/07/27 18:22:56;;;;;;;4.30;2.10;;;22.20;94.30;;;;;;4987128;28;20319;-74
2023/07/27 18:25:22;;;;;;;4.60;1.73;;;22.10;94.00;;;;;;4987101;28;20035;-73
2023/07/27 18:27:49;;;;;;;3.92;1.83;;;22.00;94.10;;;;;;4986938;28;20054;-75
2023/07/27 18:30:15;;;;;;;4.10;2.40;;;21.90;94.50;;;;;;4985988;28;20091;-78
2023/07/27 18:32:41;;;;;;;4.53;1.70;;;21.90;94.50;;;;;;4986656;28;20038;-73
2023/07/27 18:35:07;;;;;;;4.03;2.28;;;21.80;94.40;;;;;;4987022;28;20022;-73
2023/07/27 18:37:33;;;;;;;4.07;2.20;;;21.80;94.80;;;;;;4985829;28;20034;-73
2023/07/27 18:39:58;;;;;;;4.88;3.10;;;21.60;94.80;;;;;;4986487;28;20097;-73
2023/07/27 18:42:24;;;;;;;4.32;2.40;;;21.60;94.90;;;;;;4985655;28;20321;-72
2023/07/27 18:44:49;;;;;;;5.57;2.17;;;21.50;95.10;;;;;;4985818;28;20084;-73
2023/07/27 18:47:15;;;;;;;3.67;2.50;;;21.50;95.20;;;;;;4985497;28;20031;-75
2023/07/27 18:49:41;;;;;;;3.85;2.17;;;21.40;95.30;;;;;;4985657;28;20089;-73
2023/07/27 18:52:07;;;;;;;5.43;3.30;;;21.40;96.50;;;;;;4986320;28;20050;-73
2023/07/27 18:54:32;;;;;;;6.93;3.45;;;21.40;97.10;;;;;;4986295;28;20252;-73
2023/07/27 18:56:58;;;;;;;5.93;3.33;;;21.30;96.90;;;;;;4986586;28;20094;-73
2023/07/27 18:59:24;;;;;;;4.35;2.85;;;21.20;96.80;;;;;;4986215;28;20046;-74
2023/07/27 19:01:49;;;;;;;4.53;2.70;;;21.20;97.20;;;;;;4985883;28;20038;-72
2023/07/27 19:04:15;;;;;;;5.25;3.00;;;21.10;98.10;;;;;;4986352;28;20078;-73
2023/07/27 19:06:41;;;;;;;4.70;2.78;;;21.00;98.80;;;;;;4986143;28;20038;-73
2023/07/27 19:09:07;;;;;;;5.97;3.08;;;21.00;98.50;;;;;;4986298;28;20253;-74
2023/07/27 19:11:33;;;;;;;4.32;2.80;;;20.90;99.10;;;;;;4985964;28;20054;-72
2023/07/27 19:13:58;;;;;;;4.80;2.67;;;20.80;99.40;;;;;;4985781;28;20256;-72
2023/07/27 19:16:27;;;;;;;5.28;2.65;;;20.70;99.50;;;;;;4986281;28;20038;-73
2023/07/27 19:18:53;;;;;;;4.97;2.55;;;20.60;99.60;;;;;;4985398;28;20273;-72
2023/07/27 19:21:19;;;;;;;3.90;2.53;;;20.50;99.80;;;;;;4986004;28;20034;-73
2023/07/27 19:23:45;;;;;;;4.07;2.08;;;20.40;99.90;;;;;;4985807;28;20026;-74
2023/07/27 19:26:22;;;;;;;4.00;2.50;;;20.30;99.90;;;;;;4985283;28;20255;-74
2023/07/27 19:28:48;;;;;;;3.75;2.17;;;20.30;99.90;;;;;;4985754;28;20093;-72
2023/07/27 19:31:21;;;;;;;3.45;2.05;;;20.20;99.90;;;;;;4985871;28;20033;-71
2023/07/27 19:33:51;;;;;;;5.18;2.63;;;20.20;99.90;;;;;;4985268;28;20031;-74
2023/07/27 19:36:21;;;;;;;4.55;2.80;;;20.10;99.90;;;;;;4985707;28;20034;-71
2023/07/27 19:38:47;;;;;;;4.28;2.30;;;20.10;99.90;;;;;;4984969;28;20324;-71
2023/07/27 19:41:16;;;;;;;4.70;2.50;;;20.10;99.90;;;;;;4985482;28;20030;-72
2023/07/27 19:43:43;;;;;;;5.55;3.05;;;20.10;99.90;;;;;;4985012;28;20035;-73
2023/07/27 19:46:12;;;;;;;4.65;2.80;;;20.10;99.90;;;;;;4985561;28;20215;-73
2023/07/27 19:48:38;;;;;;;6.00;2.70;;;20.00;99.90;;;;;;4985017;28;20026;-74
2023/07/27 19:51:04;;;;;;;3.80;2.47;;;20.00;99.90;;;;;;4985179;28;20033;-73
2023/07/27 19:53:30;;;;;;;5.85;3.22;;;20.00;99.90;;;;;;4985169;28;20073;-74
2023/07/27 19:56:03;;;;;;;4.28;2.75;;;20.00;99.90;;;;;;4984782;28;20278;-73
2023/07/27 19:58:29;;;;;;;7.57;4.00;;;20.00;99.90;;;;;;4985620;28;20038;-74
2023/07/27 20:00:59;;;;;;;6.32;3.38;;;20.00;99.90;;;;;;4983636;28;20041;-73
2023/07/27 20:03:26;;;;;;;7.15;3.20;;;20.00;99.90;;;;;;4981003;28;20035;-75
2023/07/27 20:05:53;;;;;;;4.72;2.60;;;20.00;99.90;;;;;;4984280;28;20359;-73
2023/07/27 20:08:19;;;;;;;6.47;2.53;;;20.00;99.90;;;;;;4984866;28;20026;-73
2023/07/27 20:10:45;;;;;;;5.93;3.25;;;20.00;99.90;;;;;;4984789;28;20039;-74
2023/07/27 20:13:11;;;;;;;4.72;2.88;;;20.00;99.90;;;;;;4984989;28;20046;-74
2023/07/27 20:15:37;;;;;;;6.35;3.33;;;19.90;99.90;;;;;;4984496;28;20038;-74
2023/07/27 20:18:04;;;;;;;4.82;2.92;;;19.90;99.90;;;;;;4984862;28;20046;-73
2023/07/27 20:20:30;;;;;;;6.55;3.40;;;19.80;99.90;;;;;;4968165;28;20126;-73
2023/07/27 20:22:56;;;;;;;6.55;4.07;;;19.80;99.90;;;;;;4984239;28;20359;-74
2023/07/27 20:25:22;;;;;;;4.85;3.40;;;19.70;99.90;;;;;;4984773;28;20031;-73
2023/07/27 20:27:47;;;;;;;6.70;4.00;;;19.70;99.90;;;;;;4984375;28;20037;-73
2023/07/27 20:30:15;;;;;;;7.72;4.25;;;19.70;99.90;;;;;;4985104;28;20046;-74
2023/07/27 20:32:41;;;;;;;8.80;4.57;;;19.60;99.90;;;;;;4984087;28;20073;-73
2023/07/27 20:35:07;;;;;;;6.80;4.10;;;19.60;99.90;;;;;;4984502;28;20356;-75
2023/07/27 20:37:33;;;;;;;7.05;4.35;;;19.60;99.90;;;;;;4983651;28;20109;-74
2023/07/27 20:39:59;;;;;;;7.25;4.40;;;19.50;99.90;;;;;;4983950;28;20093;-74
2023/07/27 20:42:36;;;;;;;5.88;3.97;;;19.50;99.90;;;;;;4984479;28;20050;-73
2023/07/27 20:45:04;;;;;;;5.65;3.72;;;19.50;99.90;;;;;;4984323;28;20050;-74
2023/07/27 20:47:31;;;;;;;6.95;3.95;;;19.40;99.90;;;;;;4984548;28;20094;-74
2023/07/27 20:49:57;;;;;;;5.65;3.80;;;19.40;99.90;;;;;;4983829;28;20127;-74
2023/07/27 20:52:23;;;;;;;6.35;3.30;;;19.30;99.90;;;;;;4984393;28;20107;-74
2023/07/27 20:54:48;;;;;;;6.53;3.95;;;19.30;99.90;;;;;;4983992;28;20022;-74
2023/07/27 20:57:14;;;;;;;5.85;3.95;;;19.30;99.90;;;;;;4984358;28;20050;-76
2023/07/27 20:59:40;;;;;;;7.32;3.50;;;19.30;99.90;;;;;;4983784;28;20042;-73